Terminal Aerodrome Forecast
Issued by NWS Upton, NY

Current Version | Previous Version | Text Only | Print | Product List | Glossary On
Versions: 1 2 3 4 5 6 7 8 9 10 11 12 13 14 15 16 17 18 19 20 21 22 23 24 25 26 27 28 29 30 31 32 33 34
000
FTUS41 KOKX 152229 AAC
TAFEWR
TAF AMD
KEWR 152229Z 1522/1624 26006KT 2SM -SN FEW005 SCT008 OVC015
      TEMPO 1523/1524 3/4SM -SN VV008
     FM160100 28009KT P6SM SCT035 BKN070
     FM160400 26011KT P6SM SCT150
     FM161200 27012KT P6SM FEW070 FEW250
     FM161500 27017G25KT P6SM SCT040
     FM161800 27019G27KT P6SM BKN040=

USA.gov is the U.S. government's official web portal to all federal, state and local government web resources and services.